createdAt,value
2023-03-22T00:01:30.912Z,7.60
2023-03-22T00:03:57.627Z,7.60
2023-03-22T00:06:25.417Z,7.70
2023-03-22T00:08:53.182Z,7.70
2023-03-22T00:11:22.498Z,7.70
2023-03-22T00:13:52.313Z,7.80
2023-03-22T00:16:19.953Z,7.80
2023-03-22T00:18:46.799Z,7.80
2023-03-22T00:21:15.648Z,7.90
2023-03-22T00:23:43.143Z,7.90
2023-03-22T00:26:11.599Z,7.90
2023-03-22T00:28:38.101Z,8.00
2023-03-22T00:31:05.842Z,7.90
2023-03-22T00:33:32.968Z,8.00
2023-03-22T00:36:01.959Z,8.00
2023-03-22T00:38:42.524Z,8.00
2023-03-22T00:41:12.745Z,8.00
2023-03-22T00:43:39.552Z,8.10
2023-03-22T00:46:06.608Z,8.10
2023-03-22T00:48:33.356Z,8.10
2023-03-22T00:51:00.146Z,8.10
2023-03-22T00:53:28.946Z,8.10
2023-03-22T00:55:56.704Z,8.20
2023-03-22T00:58:23.356Z,8.20
2023-03-22T01:00:50.262Z,8.20
2023-03-22T01:03:17.349Z,8.20
2023-03-22T01:05:47.034Z,8.30
2023-03-22T01:08:14.880Z,8.30
2023-03-22T01:10:42.561Z,8.30
2023-03-22T01:13:10.746Z,8.30
2023-03-22T01:15:37.972Z,8.40
2023-03-22T01:18:04.863Z,8.40
2023-03-22T01:20:31.948Z,8.40
2023-03-22T01:22:59.365Z,8.40
2023-03-22T01:25:25.978Z,8.40
2023-03-22T01:27:52.511Z,8.50
2023-03-22T01:30:19.221Z,8.40
2023-03-22T01:32:45.781Z,8.40
2023-03-22T01:35:12.535Z,8.40
2023-03-22T01:37:39.161Z,8.40
2023-03-22T01:40:06.595Z,8.40
2023-03-22T01:42:33.112Z,8.40
2023-03-22T01:45:14.798Z,8.40
2023-03-22T01:47:51.873Z,8.40
2023-03-22T01:50:19.333Z,8.40
2023-03-22T01:52:45.969Z,8.40
2023-03-22T01:55:13.410Z,8.40
2023-03-22T01:57:41.462Z,8.40
2023-03-22T02:00:15.768Z,8.40
2023-03-22T02:02:44.167Z,8.40
2023-03-22T02:05:12.190Z,8.40
2023-03-22T02:07:42.040Z,8.40
2023-03-22T02:10:14.034Z,8.40
2023-03-22T02:13:15.595Z,8.40
2023-03-22T02:16:20.798Z,8.40
2023-03-22T02:18:58.261Z,8.40
2023-03-22T02:21:33.638Z,8.30
2023-03-22T02:24:24.085Z,8.30
2023-03-22T02:27:09.235Z,8.20
2023-03-22T02:29:59.108Z,8.20
2023-03-22T02:32:58.245Z,8.10
2023-03-22T02:35:33.572Z,8.10
2023-03-22T02:38:21.304Z,8.00
2023-03-22T02:41:04.784Z,8.00
2023-03-22T02:43:56.273Z,7.90
2023-03-22T02:46:44.010Z,7.90
2023-03-22T02:49:23.473Z,7.80
2023-03-22T02:52:01.319Z,7.80
2023-03-22T02:54:38.052Z,7.80
2023-03-22T02:57:28.440Z,7.80
2023-03-22T02:59:56.866Z,7.80
2023-03-22T03:02:26.552Z,7.70
2023-03-22T03:04:55.920Z,7.70
2023-03-22T03:07:24.632Z,7.70
2023-03-22T03:09:51.725Z,7.70
2023-03-22T03:12:21.386Z,7.70
2023-03-22T03:14:48.169Z,7.70
2023-03-22T03:17:29.526Z,7.70
2023-03-22T03:20:21.959Z,7.60
2023-03-22T03:23:00.238Z,7.60
2023-03-22T03:25:43.238Z,7.60
2023-03-22T03:28:29.953Z,7.60
2023-03-22T03:31:16.720Z,7.60
2023-03-22T03:33:53.642Z,7.50
2023-03-22T03:36:22.197Z,7.50
2023-03-22T03:38:53.614Z,7.40
2023-03-22T03:41:23.801Z,7.40
2023-03-22T03:43:51.489Z,7.40
2023-03-22T03:46:18.343Z,7.40
2023-03-22T03:48:48.482Z,7.40
2023-03-22T03:51:15.514Z,7.40
2023-03-22T03:53:42.284Z,7.30
2023-03-22T03:56:09.216Z,7.40
2023-03-22T03:58:35.858Z,7.30
2023-03-22T04:01:04.030Z,7.30
2023-03-22T04:03:31.322Z,7.20
2023-03-22T04:05:59.630Z,7.20
2023-03-22T04:08:27.014Z,7.20
2023-03-22T04:10:53.637Z,7.10
2023-03-22T04:13:21.546Z,7.10
2023-03-22T04:15:53.066Z,7.00
2023-03-22T04:18:19.718Z,7.00
2023-03-22T04:20:46.978Z,7.00
2023-03-22T04:23:13.542Z,7.00
2023-03-22T04:25:40.045Z,7.00
2023-03-22T04:28:07.389Z,7.00
2023-03-22T04:30:36.026Z,7.00
2023-03-22T04:33:06.966Z,6.90
2023-03-22T04:35:34.902Z,6.80
2023-03-22T04:38:01.493Z,6.80
2023-03-22T04:40:31.566Z,6.80
2023-03-22T04:42:58.825Z,6.80
2023-03-22T04:45:29.077Z,6.70
2023-03-22T04:47:56.107Z,6.70
2023-03-22T04:50:22.701Z,6.70
2023-03-22T04:52:49.796Z,6.70
2023-03-22T04:55:16.726Z,6.70
2023-03-22T04:57:43.227Z,6.70
2023-03-22T05:00:10.127Z,6.60
2023-03-22T05:02:41.521Z,6.60
2023-03-22T05:05:08.463Z,6.60
2023-03-22T05:07:35.094Z,6.50
2023-03-22T05:10:01.878Z,6.50
2023-03-22T05:12:28.386Z,6.50
2023-03-22T05:14:54.941Z,6.50
2023-03-22T05:17:21.508Z,6.50
2023-03-22T05:19:48.295Z,6.50
2023-03-22T05:22:14.835Z,6.50
2023-03-22T05:24:41.483Z,6.50
2023-03-22T05:27:08.319Z,6.50
2023-03-22T05:29:36.792Z,6.50
2023-03-22T05:32:04.390Z,6.50
2023-03-22T05:34:35.628Z,6.60
2023-03-22T05:37:02.796Z,6.70
2023-03-22T05:39:29.480Z,6.70
2023-03-22T05:41:56.170Z,6.70
2023-03-22T05:44:22.720Z,6.60
2023-03-22T05:46:49.316Z,6.60
2023-03-22T05:49:15.933Z,6.60
2023-03-22T05:51:42.562Z,6.70
2023-03-22T05:54:09.762Z,6.70
2023-03-22T05:56:36.500Z,6.70
2023-03-22T05:59:04.524Z,6.80
2023-03-22T06:01:31.276Z,6.90
2023-03-22T06:03:57.847Z,7.00
2023-03-22T06:06:24.574Z,7.00
2023-03-22T06:08:51.097Z,7.10
2023-03-22T06:11:19.132Z,7.20
2023-03-22T06:13:45.712Z,7.30
2023-03-22T06:16:12.300Z,7.40
2023-03-22T06:18:38.855Z,7.50
2023-03-22T06:21:05.783Z,7.60
2023-03-22T06:23:32.347Z,7.70
2023-03-22T06:25:58.993Z,7.90
2023-03-22T06:28:29.698Z,8.00
2023-03-22T06:30:56.517Z,8.20
2023-03-22T06:33:23.189Z,8.40
2023-03-22T06:35:49.761Z,8.60
2023-03-22T06:38:16.548Z,8.80
2023-03-22T06:40:43.313Z,9.00
2023-03-22T06:43:09.893Z,9.20
2023-03-22T06:45:36.450Z,9.40
2023-03-22T06:48:03.096Z,9.60
2023-03-22T06:50:29.908Z,9.90
2023-03-22T06:52:56.618Z,10.10
2023-03-22T06:55:24.706Z,10.30
2023-03-22T06:57:51.256Z,10.50
2023-03-22T07:00:18.237Z,10.50
2023-03-22T07:02:44.784Z,10.70
2023-03-22T07:05:11.323Z,11.00
2023-03-22T07:07:37.913Z,11.20
2023-03-22T07:10:05.275Z,11.30
2023-03-22T07:12:31.969Z,11.20
2023-03-22T07:14:58.622Z,11.10
2023-03-22T07:17:25.181Z,11.00
2023-03-22T07:19:51.692Z,10.70
2023-03-22T07:22:18.437Z,10.50
2023-03-22T07:24:56.183Z,10.30
2023-03-22T07:27:23.728Z,10.20
2023-03-22T07:29:50.428Z,10.30
2023-03-22T07:32:17.219Z,10.30
2023-03-22T07:34:43.947Z,10.40
2023-03-22T07:37:10.683Z,10.80
2023-03-22T07:39:37.367Z,11.40
2023-03-22T07:42:03.993Z,12.00
2023-03-22T07:44:30.753Z,12.60
2023-03-22T07:46:57.364Z,13.20
2023-03-22T07:49:23.992Z,13.70
2023-03-22T07:51:50.555Z,14.10
2023-03-22T07:54:32.107Z,14.20
2023-03-22T07:56:59.475Z,14.60
2023-03-22T07:59:26.281Z,15.20
2023-03-22T08:01:52.853Z,15.60
2023-03-22T08:04:20.834Z,16.00
2023-03-22T08:06:47.396Z,16.60
2023-03-22T08:09:13.955Z,16.90
2023-03-22T08:11:40.490Z,17.00
2023-03-22T08:14:07.217Z,16.80
2023-03-22T08:16:34.300Z,17.60
2023-03-22T08:19:01.049Z,18.70
2023-03-22T08:21:27.750Z,20.30
2023-03-22T08:23:54.436Z,20.80
2023-03-22T08:26:22.048Z,20.10
2023-03-22T08:28:48.667Z,19.30
2023-03-22T08:31:17.038Z,18.20
2023-03-22T08:33:44.480Z,18.30
2023-03-22T08:36:14.149Z,19.10
2023-03-22T08:38:42.286Z,19.70
2023-03-22T08:41:08.929Z,20.00
2023-03-22T08:43:35.515Z,19.20
2023-03-22T08:46:02.394Z,18.70
2023-03-22T08:48:30.686Z,19.20
2023-03-22T08:50:58.031Z,20.40
2023-03-22T08:53:24.735Z,21.10
2023-03-22T08:55:51.267Z,21.60
2023-03-22T08:58:19.762Z,22.00
2023-03-22T09:00:49.523Z,21.60
2023-03-22T09:03:16.942Z,21.50
2023-03-22T09:05:43.703Z,20.60
2023-03-22T09:08:18.443Z,19.60
2023-03-22T09:10:47.955Z,19.80
2023-03-22T09:13:16.707Z,19.90
2023-03-22T09:15:44.919Z,20.10
2023-03-22T09:18:12.086Z,20.40
2023-03-22T09:20:39.703Z,19.70
2023-03-22T09:23:06.820Z,18.60
2023-03-22T09:25:33.466Z,17.80
2023-03-22T09:28:00.008Z,17.10
2023-03-22T09:30:27.135Z,16.60
2023-03-22T09:32:54.230Z,16.30
2023-03-22T09:35:21.279Z,16.50
2023-03-22T09:37:49.178Z,17.10
2023-03-22T09:40:17.337Z,18.20
2023-03-22T09:42:50.207Z,18.40
2023-03-22T09:45:20.520Z,18.40
2023-03-22T09:47:51.153Z,18.90
2023-03-22T09:50:26.217Z,18.80
2023-03-22T09:52:53.613Z,18.60
2023-03-22T09:55:38.850Z,18.80
2023-03-22T09:58:32.818Z,19.00
2023-03-22T10:01:06.662Z,18.20
2023-03-22T10:04:26.266Z,17.30
2023-03-22T10:07:13.814Z,17.20
2023-03-22T10:09:55.056Z,17.10
2023-03-22T10:12:50.046Z,16.90
2023-03-22T10:15:20.938Z,16.70
2023-03-22T10:17:53.413Z,16.50
2023-03-22T10:20:24.014Z,16.30
2023-03-22T10:22:53.447Z,16.10
2023-03-22T10:25:27.391Z,16.10
2023-03-22T10:27:54.234Z,16.30
2023-03-22T10:30:24.378Z,16.60
2023-03-22T10:33:02.765Z,16.90
2023-03-22T10:35:30.573Z,16.90
2023-03-22T10:38:00.755Z,16.90
2023-03-22T10:40:31.133Z,17.30
2023-03-22T10:43:10.867Z,17.90
2023-03-22T10:45:38.167Z,18.30
2023-03-22T10:48:19.335Z,19.50
2023-03-22T10:50:46.444Z,20.90
2023-03-22T10:53:21.280Z,22.00
2023-03-22T10:55:48.084Z,23.00
2023-03-22T10:58:17.725Z,22.00
2023-03-22T11:00:53.590Z,20.40
2023-03-22T11:03:31.008Z,19.10
2023-03-22T11:06:12.582Z,18.40
2023-03-22T11:08:53.990Z,18.10
2023-03-22T11:11:20.609Z,18.30
2023-03-22T11:14:26.621Z,18.50
2023-03-22T11:16:57.085Z,19.90
2023-03-22T11:19:31.791Z,20.70
2023-03-22T11:21:59.991Z,20.70
2023-03-22T11:24:29.665Z,19.80
2023-03-22T11:27:18.775Z,19.30
2023-03-22T11:29:51.928Z,20.00
2023-03-22T11:32:21.156Z,20.70
2023-03-22T11:34:47.769Z,21.70
2023-03-22T11:37:18.214Z,22.40
2023-03-22T11:39:49.410Z,22.90
2023-03-22T11:42:20.817Z,23.10
2023-03-22T11:44:47.472Z,23.60
2023-03-22T11:47:14.382Z,23.60
2023-03-22T11:49:52.207Z,23.50
2023-03-22T11:52:25.798Z,23.00
2023-03-22T11:54:54.121Z,22.20
2023-03-22T11:57:27.258Z,21.40
2023-03-22T12:00:15.035Z,20.90
2023-03-22T12:02:50.320Z,20.20
2023-03-22T12:05:27.258Z,19.60
2023-03-22T12:08:20.822Z,19.10
2023-03-22T12:10:57.781Z,18.90
2023-03-22T12:13:43.783Z,18.80
2023-03-22T12:16:15.234Z,18.60
2023-03-22T12:19:19.630Z,18.40
2023-03-22T12:21:48.669Z,18.20
2023-03-22T12:24:35.683Z,18.10
2023-03-22T12:27:14.510Z,18.10
2023-03-22T12:29:51.898Z,18.10
2023-03-22T12:32:24.332Z,18.00
2023-03-22T12:34:55.126Z,18.00
2023-03-22T12:37:32.081Z,17.90
2023-03-22T12:40:25.973Z,18.10
2023-03-22T12:43:15.658Z,18.30
2023-03-22T12:45:49.098Z,18.50
2023-03-22T12:48:33.840Z,18.30
2023-03-22T12:51:06.178Z,18.20
2023-03-22T12:53:42.170Z,18.10
2023-03-22T12:56:31.109Z,18.10
2023-03-22T12:59:07.867Z,18.10
2023-03-22T13:01:58.356Z,18.10
2023-03-22T13:04:37.217Z,18.10
2023-03-22T13:07:30.557Z,18.20
2023-03-22T13:09:59.137Z,18.10
2023-03-22T13:12:29.174Z,18.00
2023-03-22T13:15:00.886Z,17.90
2023-03-22T13:17:27.513Z,18.00
2023-03-22T13:20:07.750Z,18.00
2023-03-22T13:22:37.525Z,18.00
2023-03-22T13:25:10.115Z,18.00
2023-03-22T13:27:46.047Z,18.00
2023-03-22T13:30:24.060Z,17.90
2023-03-22T13:33:08.489Z,17.90
2023-03-22T13:35:44.128Z,17.90
2023-03-22T13:38:19.356Z,18.10
2023-03-22T13:40:56.334Z,18.30
2023-03-22T13:43:33.735Z,18.30
2023-03-22T13:46:11.594Z,18.20
2023-03-22T13:48:47.380Z,18.10
2023-03-22T13:51:23.330Z,18.00
2023-03-22T13:53:52.573Z,18.10
2023-03-22T13:56:46.714Z,18.10
2023-03-22T13:59:27.397Z,18.10
2023-03-22T14:02:04.829Z,18.10
2023-03-22T14:04:42.928Z,18.20
2023-03-22T14:07:30.753Z,18.30
2023-03-22T14:10:21.144Z,18.20
2023-03-22T14:12:55.818Z,18.20
2023-03-22T14:15:32.644Z,18.10
2023-03-22T14:18:23.816Z,18.10
2023-03-22T14:20:55.354Z,17.90
